Time;durP1;ratioP1;P1;durP2;ratioP2;P2;SDS_P1;SDS_P2;PMS_P1;PMS_P2;Temp;Humidity;BMP_temperature;BMP_pressure;BME280_temperature;BME280_humidity;BME280_pressure;Samples;Min_cycle;Max_cycle;Signal;HPM_P1;HPM_P2
2021/05/26 00:01:24;;;;;;;15.25;3.63;;;;;;;;;;5018173;28;20057;-43
2021/05/26 00:03:50;;;;;;;10.68;2.20;;;;;;;;;;5018750;28;20133;-43
2021/05/26 00:06:15;;;;;;;12.63;2.70;;;;;;;;;;5018002;28;20061;-42
2021/05/26 00:08:41;;;;;;;7.95;3.80;;;;;;;;;;5020695;28;20037;-42
2021/05/26 00:11:08;;;;;;;15.20;3.20;;;;;;;;;;5017114;28;20069;-41
2021/05/26 00:13:33;;;;;;;7.25;2.30;;;;;;;;;;5019377;28;20079;-42
2021/05/26 00:15:59;;;;;;;6.25;2.60;;;;;;;;;;5016861;28;20454;-42
2021/05/26 00:18:24;;;;;;;9.52;4.00;;;;;;;;;;5020663;28;20108;-42
2021/05/26 00:20:51;;;;;;;8.50;2.47;;;;;;;;;;5019527;28;20523;-43
2021/05/26 00:23:17;;;;;;;4.53;1.55;;;;;;;;;;5016940;28;20615;-44
2021/05/26 00:25:42;;;;;;;6.90;2.25;;;;;;;;;;5017334;28;20571;-42
2021/05/26 00:28:07;;;;;;;7.10;2.92;;;;;;;;;;5018297;28;20037;-41
2021/05/26 00:30:36;;;;;;;15.70;3.80;;;;;;;;;;5016405;28;20075;-44
2021/05/26 00:33:01;;;;;;;8.70;3.85;;;;;;;;;;5019041;28;20075;-43
2021/05/26 00:35:27;;;;;;;12.07;3.08;;;;;;;;;;5013354;28;20033;-43
2021/05/26 00:37:52;;;;;;;7.82;2.92;;;;;;;;;;5017798;28;20542;-44
2021/05/26 00:40:18;;;;;;;12.40;3.80;;;;;;;;;;5019592;28;20482;-44
2021/05/26 00:42:44;;;;;;;5.00;2.65;;;;;;;;;;5018081;28;20072;-42
2021/05/26 00:45:09;;;;;;;3.70;2.38;;;;;;;;;;5015523;28;20494;-42
2021/05/26 00:48:00;;;;;;;5.47;3.17;;;;;;;;;;5016175;28;20112;-44
2021/05/26 00:50:27;;;;;;;5.55;1.98;;;;;;;;;;5013424;28;20522;-43
2021/05/26 00:52:52;;;;;;;5.40;2.80;;;;;;;;;;5014626;28;20076;-44
2021/05/26 00:55:19;;;;;;;13.98;3.38;;;;;;;;;;5017031;28;20026;-44
2021/05/26 00:57:46;;;;;;;8.73;3.72;;;;;;;;;;5017564;28;20041;-42
2021/05/26 01:00:12;;;;;;;6.28;2.20;;;;;;;;;;5018117;28;20088;-46
2021/05/26 01:02:38;;;;;;;4.10;2.67;;;;;;;;;;5016131;28;20121;-45
2021/05/26 01:05:04;;;;;;;12.57;3.58;;;;;;;;;;5013855;28;20138;-43
2021/05/26 01:07:29;;;;;;;15.43;3.83;;;;;;;;;;5019192;28;20033;-42
2021/05/26 01:09:56;;;;;;;4.93;3.55;;;;;;;;;;5017238;28;20052;-44
2021/05/26 01:12:21;;;;;;;5.70;2.72;;;;;;;;;;5019562;28;20042;-46
2021/05/26 01:14:46;;;;;;;14.07;4.38;;;;;;;;;;5016918;28;20048;-42
2021/05/26 01:17:11;;;;;;;5.47;2.75;;;;;;;;;;5017668;28;20064;-44
2021/05/26 01:19:38;;;;;;;6.90;2.88;;;;;;;;;;5016971;28;20087;-42
2021/05/26 01:22:05;;;;;;;7.10;2.90;;;;;;;;;;5015446;28;20044;-43
2021/05/26 01:24:30;;;;;;;10.90;3.08;;;;;;;;;;5016602;28;20080;-44
2021/05/26 01:26:56;;;;;;;4.10;2.92;;;;;;;;;;5018120;28;20549;-42
2021/05/26 01:29:21;;;;;;;4.63;2.67;;;;;;;;;;5017170;28;20042;-43
2021/05/26 01:31:46;;;;;;;3.92;1.92;;;;;;;;;;5017028;28;20483;-42
2021/05/26 01:34:12;;;;;;;5.20;2.55;;;;;;;;;;5014913;28;20614;-44
2021/05/26 01:36:40;;;;;;;11.73;2.80;;;;;;;;;;5020620;28;20033;-47
2021/05/26 01:39:05;;;;;;;5.72;2.33;;;;;;;;;;5017142;28;20049;-53
2021/05/26 01:41:31;;;;;;;9.93;3.85;;;;;;;;;;5016173;28;20585;-48
2021/05/26 01:43:56;;;;;;;9.32;3.47;;;;;;;;;;5019191;28;20029;-46
2021/05/26 01:46:22;;;;;;;11.77;3.88;;;;;;;;;;5014858;28;20036;-46
2021/05/26 01:48:48;;;;;;;6.97;3.83;;;;;;;;;;5013761;28;20034;-44
2021/05/26 01:51:13;;;;;;;5.35;2.42;;;;;;;;;;5015132;28;20505;-43
2021/05/26 01:53:38;;;;;;;8.85;2.30;;;;;;;;;;5013367;28;20496;-46
2021/05/26 01:56:04;;;;;;;9.15;2.28;;;;;;;;;;5015367;28;20049;-44
2021/05/26 01:58:29;;;;;;;6.93;2.28;;;;;;;;;;5015678;28;20044;-44
2021/05/26 02:00:54;;;;;;;9.40;3.45;;;;;;;;;;5016163;28;20030;-44
2021/05/26 02:03:23;;;;;;;6.80;2.53;;;;;;;;;;5015796;28;20672;-43
2021/05/26 02:05:50;;;;;;;3.63;2.17;;;;;;;;;;5017624;28;20071;-43
2021/05/26 02:08:15;;;;;;;7.45;3.55;;;;;;;;;;5015867;28;20030;-49
2021/05/26 02:13:24;;;;;;;9.63;4.25;;;;;;;;;;5015785;28;20115;-43
2021/05/26 02:15:50;;;;;;;12.35;3.03;;;;;;;;;;5017096;28;20029;-42
2021/05/26 02:18:15;;;;;;;5.75;1.65;;;;;;;;;;5019629;28;20538;-42
2021/05/26 02:51:09;;;;;;;8.27;2.55;;;;;;;;;;4995644;28;20569;-42
2021/05/26 02:53:34;;;;;;;8.73;2.92;;;;;;;;;;4998044;28;20046;-42
2021/05/26 02:56:03;;;;;;;8.40;3.00;;;;;;;;;;4994791;28;20030;-45
2021/05/26 02:58:28;;;;;;;6.70;4.35;;;;;;;;;;4994743;28;20041;-42
2021/05/26 03:00:53;;;;;;;8.55;3.80;;;;;;;;;;4995893;28;20027;-42
2021/05/26 03:03:19;;;;;;;12.27;3.67;;;;;;;;;;4994800;28;20645;-42
2021/05/26 03:05:44;;;;;;;6.50;2.83;;;;;;;;;;4992108;28;20279;-43
2021/05/26 03:08:10;;;;;;;14.85;2.85;;;;;;;;;;4997621;28;20113;-45
2021/05/26 03:10:35;;;;;;;7.68;2.92;;;;;;;;;;4998812;28;20034;-44
2021/05/26 03:13:00;;;;;;;8.40;2.72;;;;;;;;;;4999167;28;20105;-43
2021/05/26 03:15:26;;;;;;;10.30;2.00;;;;;;;;;;5001600;28;20128;-43
2021/05/26 03:17:51;;;;;;;9.18;3.40;;;;;;;;;;5000447;28;20034;-43
2021/05/26 03:20:17;;;;;;;6.20;2.67;;;;;;;;;;5000920;28;20025;-44
2021/05/26 03:22:43;;;;;;;3.97;1.73;;;;;;;;;;4997951;28;20034;-44
2021/05/26 03:25:10;;;;;;;9.18;3.55;;;;;;;;;;4999098;28;20045;-47
2021/05/26 03:27:36;;;;;;;5.97;3.05;;;;;;;;;;5001705;28;20034;-43
2021/05/26 04:01:09;;;;;;;12.93;3.70;;;;;;;;;;5016630;28;20104;-45
2021/05/26 04:03:34;;;;;;;11.18;4.45;;;;;;;;;;5018964;28;20034;-46
2021/05/26 04:05:59;;;;;;;9.98;3.30;;;;;;;;;;5017419;28;20026;-48
2021/05/26 04:08:25;;;;;;;11.63;2.83;;;;;;;;;;5002775;28;20030;-48
2021/05/26 04:10:50;;;;;;;5.93;3.30;;;;;;;;;;5018643;28;20164;-47
2021/05/26 04:13:15;;;;;;;4.82;2.80;;;;;;;;;;5018662;28;20807;-46
2021/05/26 04:15:40;;;;;;;14.55;3.50;;;;;;;;;;5024702;28;20029;-46
2021/05/26 04:18:07;;;;;;;11.88;3.83;;;;;;;;;;5020529;28;20082;-47
2021/05/26 04:20:32;;;;;;;5.88;3.38;;;;;;;;;;5019709;28;20037;-45
2021/05/26 04:22:58;;;;;;;6.20;3.25;;;;;;;;;;5020509;28;20022;-48
2021/05/26 04:25:23;;;;;;;5.53;3.20;;;;;;;;;;5019296;28;20104;-51
2021/05/26 04:27:48;;;;;;;10.60;2.90;;;;;;;;;;5012793;28;20034;-50
2021/05/26 04:30:14;;;;;;;5.70;2.33;;;;;;;;;;5017556;28;20034;-49
2021/05/26 04:32:39;;;;;;;7.00;2.60;;;;;;;;;;5018018;28;20119;-47
2021/05/26 04:35:05;;;;;;;9.25;3.30;;;;;;;;;;5001575;28;20076;-46
2021/05/26 04:37:30;;;;;;;6.60;2.95;;;;;;;;;;5019983;28;20025;-49
2021/05/26 04:39:56;;;;;;;7.40;3.00;;;;;;;;;;5018313;28;20552;-47
2021/05/26 04:42:21;;;;;;;5.20;2.10;;;;;;;;;;5014628;28;20530;-46
2021/05/26 04:44:46;;;;;;;6.25;3.78;;;;;;;;;;5019233;28;20034;-48
2021/05/26 04:47:12;;;;;;;6.30;2.38;;;;;;;;;;5017508;28;20030;-48
2021/05/26 04:49:37;;;;;;;8.60;2.65;;;;;;;;;;5016610;28;20482;-46
2021/05/26 04:52:02;;;;;;;5.35;2.55;;;;;;;;;;5019448;28;20569;-48
2021/05/26 04:54:28;;;;;;;6.88;4.88;;;;;;;;;;5018581;28;20491;-49
2021/05/26 04:56:53;;;;;;;5.50;3.00;;;;;;;;;;5015188;28;20108;-49
2021/05/26 04:59:18;;;;;;;7.70;5.25;;;;;;;;;;5016634;28;20045;-48
2021/05/26 05:01:43;;;;;;;4.38;3.22;;;;;;;;;;5015741;28;20033;-47
2021/05/26 05:04:09;;;;;;;4.72;2.47;;;;;;;;;;5015515;28;20068;-45
2021/05/26 05:06:34;;;;;;;4.85;2.88;;;;;;;;;;5016262;28;20046;-49
2021/05/26 05:09:00;;;;;;;6.28;3.92;;;;;;;;;;5014551;28;20041;-46
2021/05/26 05:11:25;;;;;;;5.35;2.90;;;;;;;;;;5017279;28;20029;-48
2021/05/26 05:13:51;;;;;;;4.10;2.33;;;;;;;;;;5017386;28;20031;-48
2021/05/26 05:16:16;;;;;;;9.25;5.25;;;;;;;;;;5016010;28;20037;-49
2021/05/26 05:18:41;;;;;;;10.95;3.72;;;;;;;;;;5016277;28;20033;-48
2021/05/26 05:21:07;;;;;;;15.40;9.13;;;;;;;;;;5015858;28;20056;-52
2021/05/26 05:23:34;;;;;;;5.78;2.25;;;;;;;;;;5015869;28;20033;-46
2021/05/26 05:26:00;;;;;;;7.47;2.15;;;;;;;;;;5019407;28;20034;-47
2021/05/26 05:28:25;;;;;;;9.48;3.22;;;;;;;;;;5016744;28;20617;-52
2021/05/26 05:30:50;;;;;;;10.52;6.00;;;;;;;;;;5012464;28;20525;-51
2021/05/26 05:33:15;;;;;;;15.45;4.93;;;;;;;;;;5014389;28;20029;-50
2021/05/26 05:35:41;;;;;;;14.40;4.25;;;;;;;;;;5017791;28;20053;-50
2021/05/26 05:38:06;;;;;;;16.48;4.95;;;;;;;;;;5017220;28;20121;-51
2021/05/26 05:40:31;;;;;;;4.18;2.97;;;;;;;;;;5017252;28;20526;-51
2021/05/26 05:42:57;;;;;;;15.40;3.72;;;;;;;;;;5018117;28;20491;-50
2021/05/26 05:45:22;;;;;;;23.10;5.80;;;;;;;;;;5012324;28;20088;-48
2021/05/26 05:47:47;;;;;;;12.15;6.07;;;;;;;;;;5015369;28;20556;-48
2021/05/26 05:50:16;;;;;;;11.60;5.47;;;;;;;;;;5017841;28;20119;-48
2021/05/26 05:52:42;;;;;;;8.68;4.50;;;;;;;;;;5016374;28;20069;-47
2021/05/26 05:55:08;;;;;;;16.77;4.10;;;;;;;;;;5018655;28;20520;-48
2021/05/26 05:57:34;;;;;;;11.65;5.50;;;;;;;;;;5015213;28;20172;-50
2021/05/26 05:59:59;;;;;;;19.05;5.57;;;;;;;;;;5016722;28;20140;-52
2021/05/26 06:02:24;;;;;;;7.78;4.85;;;;;;;;;;5019641;28;20025;-37
2021/05/26 06:04:50;;;;;;;7.28;3.95;;;;;;;;;;5013364;28;20462;-38
2021/05/26 06:07:15;;;;;;;11.52;3.78;;;;;;;;;;5016274;28;20069;-37
2021/05/26 06:09:40;;;;;;;7.90;3.47;;;;;;;;;;5017157;28;20506;-39
2021/05/26 06:12:06;;;;;;;8.15;5.03;;;;;;;;;;5015245;28;20073;-37
2021/05/26 06:14:31;;;;;;;10.57;4.50;;;;;;;;;;5015814;28;20074;-37
2021/05/26 06:16:56;;;;;;;19.77;10.40;;;;;;;;;;5017341;28;20031;-37
2021/05/26 06:19:21;;;;;;;52.45;45.22;;;;;;;;;;5012987;28;20026;-37
2021/05/26 06:21:47;;;;;;;43.92;37.53;;;;;;;;;;5011966;28;20042;-37
2021/05/26 06:24:12;;;;;;;44.90;31.65;;;;;;;;;;5016321;28;20116;-37
2021/05/26 06:26:37;;;;;;;26.25;22.50;;;;;;;;;;5015690;28;20153;-37
2021/05/26 06:29:04;;;;;;;23.08;14.52;;;;;;;;;;5015732;28;20462;-37
2021/05/26 06:31:30;;;;;;;20.98;13.07;;;;;;;;;;5016216;28;20045;-37
2021/05/26 06:33:56;;;;;;;13.25;8.10;;;;;;;;;;5015905;28;20500;-37
2021/05/26 06:36:21;;;;;;;36.55;29.40;;;;;;;;;;5013862;28;20080;-36
2021/05/26 06:38:46;;;;;;;60.67;48.30;;;;;;;;;;5012264;28;20052;-37
2021/05/26 06:41:12;;;;;;;50.85;40.22;;;;;;;;;;5011857;28;20091;-36
2021/05/26 06:43:37;;;;;;;36.70;28.67;;;;;;;;;;5018623;28;20037;-37
2021/05/26 06:46:02;;;;;;;17.75;15.98;;;;;;;;;;5017223;28;20046;-37
2021/05/26 06:48:28;;;;;;;21.50;13.30;;;;;;;;;;5018081;28;20098;-36
2021/05/26 06:50:53;;;;;;;7.38;6.05;;;;;;;;;;5000853;28;20034;-36
2021/05/26 06:53:18;;;;;;;15.05;6.18;;;;;;;;;;5018470;28;20116;-36
2021/05/26 06:55:44;;;;;;;14.57;6.75;;;;;;;;;;5017065;28;20033;-37
2021/05/26 06:58:09;;;;;;;10.32;4.55;;;;;;;;;;5017438;28;20037;-37
2021/05/26 07:00:35;;;;;;;6.38;3.08;;;;;;;;;;5018611;28;20057;-37
2021/05/26 07:03:00;;;;;;;16.30;4.38;;;;;;;;;;5016521;28;20715;-36
2021/05/26 07:05:27;;;;;;;8.57;2.85;;;;;;;;;;5014879;28;20382;-37
2021/05/26 07:07:52;;;;;;;13.35;5.18;;;;;;;;;;5020296;28;20033;-36
2021/05/26 07:10:19;;;;;;;5.95;3.97;;;;;;;;;;5019249;28;20036;-37
2021/05/26 07:12:46;;;;;;;12.18;5.18;;;;;;;;;;5016190;28;20581;-36
2021/05/26 07:15:11;;;;;;;8.23;5.22;;;;;;;;;;5016193;28;20112;-37
2021/05/26 07:17:37;;;;;;;14.13;10.25;;;;;;;;;;5013503;28;20550;-37
2021/05/26 07:20:03;;;;;;;19.90;6.38;;;;;;;;;;5020479;28;20550;-38
2021/05/26 07:22:29;;;;;;;23.65;13.82;;;;;;;;;;5016124;28;20045;-37
2021/05/26 07:24:54;;;;;;;10.40;6.43;;;;;;;;;;5019090;28;20030;-48
2021/05/26 07:27:19;;;;;;;9.30;3.72;;;;;;;;;;5014193;28;20046;-36
2021/05/26 07:29:44;;;;;;;22.35;6.00;;;;;;;;;;5011388;28;20108;-38
2021/05/26 07:32:10;;;;;;;18.38;3.58;;;;;;;;;;5018570;28;20712;-37
2021/05/26 07:34:35;;;;;;;22.52;4.35;;;;;;;;;;5014986;28;20030;-37
2021/05/26 07:37:00;;;;;;;3.28;2.67;;;;;;;;;;5016935;28;20226;-37
2021/05/26 07:39:28;;;;;;;9.70;3.95;;;;;;;;;;5010621;28;20395;-37
2021/05/26 07:41:53;;;;;;;5.82;2.35;;;;;;;;;;5018514;28;20055;-36
2021/05/26 07:44:18;;;;;;;9.90;4.50;;;;;;;;;;5015672;28;20025;-37
2021/05/26 07:46:44;;;;;;;20.45;4.57;;;;;;;;;;5019800;28;20052;-37
2021/05/26 07:49:10;;;;;;;3.20;1.98;;;;;;;;;;5013591;28;20404;-38
2021/05/26 07:51:38;;;;;;;4.15;2.35;;;;;;;;;;5016512;28;20038;-37
2021/05/26 07:54:05;;;;;;;10.23;2.78;;;;;;;;;;5016643;28;20042;-38
2021/05/26 07:56:31;;;;;;;5.70;2.22;;;;;;;;;;5016853;28;20107;-38
2021/05/26 07:58:56;;;;;;;14.18;3.67;;;;;;;;;;5013986;28;20493;-38
2021/05/26 08:01:21;;;;;;;9.00;3.72;;;;;;;;;;5015369;28;20049;-38
2021/05/26 08:03:47;;;;;;;3.38;1.77;;;;;;;;;;5011298;28;20115;-38
2021/05/26 08:06:12;;;;;;;5.85;2.53;;;;;;;;;;5018949;28;20041;-38
2021/05/26 08:08:38;;;;;;;10.40;2.45;;;;;;;;;;5015064;28;20030;-37
2021/05/26 08:11:04;;;;;;;10.35;2.17;;;;;;;;;;5014447;28;20041;-37
2021/05/26 08:13:30;;;;;;;18.73;3.42;;;;;;;;;;5018372;28;20034;-37
2021/05/26 08:15:55;;;;;;;15.73;3.47;;;;;;;;;;5016608;28;20479;-37
2021/05/26 08:18:21;;;;;;;11.95;2.50;;;;;;;;;;5018515;28;20059;-37
2021/05/26 08:20:47;;;;;;;13.15;3.38;;;;;;;;;;5016688;28;20033;-37
2021/05/26 08:23:13;;;;;;;8.98;2.92;;;;;;;;;;5017462;28;20038;-38
2021/05/26 08:25:38;;;;;;;8.65;4.32;;;;;;;;;;5016688;28;20034;-39
2021/05/26 08:28:04;;;;;;;15.57;8.80;;;;;;;;;;5014603;28;20029;-39
2021/05/26 08:30:29;;;;;;;17.00;11.88;;;;;;;;;;5015318;28;20029;-39
2021/05/26 08:32:54;;;;;;;10.35;2.63;;;;;;;;;;5014418;28;20044;-38
2021/05/26 08:35:20;;;;;;;6.25;2.95;;;;;;;;;;5018378;28;20510;-38
2021/05/26 08:37:45;;;;;;;6.30;1.73;;;;;;;;;;5014666;28;20504;-38
2021/05/26 08:40:12;;;;;;;3.78;1.27;;;;;;;;;;5015140;28;20163;-38
2021/05/26 08:42:37;;;;;;;7.47;1.48;;;;;;;;;;5018391;28;20084;-38
2021/05/26 08:45:04;;;;;;;13.52;2.75;;;;;;;;;;5013401;28;20043;-38
2021/05/26 08:47:33;;;;;;;9.98;3.42;;;;;;;;;;5014328;28;20046;-38
2021/05/26 08:49:58;;;;;;;6.88;1.67;;;;;;;;;;5013968;28;20037;-37
2021/05/26 08:52:23;;;;;;;5.75;2.38;;;;;;;;;;5014962;28;20046;-38
2021/05/26 08:54:49;;;;;;;3.13;0.43;;;;;;;;;;5015256;28;20037;-38
2021/05/26 08:57:14;;;;;;;5.85;2.38;;;;;;;;;;5013907;28;20034;-38
2021/05/26 08:59:40;;;;;;;3.20;1.05;;;;;;;;;;5014897;28;20041;-38
2021/05/26 09:02:08;;;;;;;3.30;1.55;;;;;;;;;;5012301;28;20157;-38
2021/05/26 09:04:34;;;;;;;9.43;2.50;;;;;;;;;;5013147;28;20052;-38
2021/05/26 09:07:06;;;;;;;6.72;2.65;;;;;;;;;;5013797;28;20136;-37
2021/05/26 09:09:50;;;;;;;6.80;1.95;;;;;;;;;;5014119;28;20357;-37
2021/05/26 09:12:23;;;;;;;10.13;3.20;;;;;;;;;;5016267;28;20129;-38
2021/05/26 09:14:48;;;;;;;7.35;3.40;;;;;;;;;;5017280;28;20064;-38
2021/05/26 09:17:13;;;;;;;8.20;2.95;;;;;;;;;;5016127;28;20069;-37
2021/05/26 09:19:39;;;;;;;3.15;2.03;;;;;;;;;;5016821;28;20030;-38
2021/05/26 09:22:14;;;;;;;14.75;2.70;;;;;;;;;;5013680;28;20034;-37
2021/05/26 09:24:39;;;;;;;10.13;1.40;;;;;;;;;;5016368;28;20041;-37
2021/05/26 09:27:06;;;;;;;5.38;3.08;;;;;;;;;;5015869;28;20376;-38
2021/05/26 09:29:33;;;;;;;2.35;1.05;;;;;;;;;;5006302;28;20065;-37
2021/05/26 09:32:10;;;;;;;3.55;1.70;;;;;;;;;;5016958;28;20048;-37
2021/05/26 09:34:37;;;;;;;4.95;2.75;;;;;;;;;;5015783;28;20691;-37
2021/05/26 09:37:04;;;;;;;11.70;2.80;;;;;;;;;;5011239;28;20057;-37
2021/05/26 09:39:50;;;;;;;3.10;1.33;;;;;;;;;;5014187;28;20057;-37
2021/05/26 09:42:21;;;;;;;11.55;4.65;;;;;;;;;;5008440;28;20034;-37
2021/05/26 09:45:05;;;;;;;6.40;3.30;;;;;;;;;;5015289;28;20072;-37
2021/05/26 09:47:42;;;;;;;9.35;3.38;;;;;;;;;;5012714;28;20061;-37
2021/05/26 09:50:23;;;;;;;5.20;2.50;;;;;;;;;;5014199;28;20076;-36
2021/05/26 09:53:04;;;;;;;6.88;2.28;;;;;;;;;;5008153;28;20041;-38
2021/05/26 09:55:35;;;;;;;3.15;1.38;;;;;;;;;;5014638;28;20029;-38
2021/05/26 09:58:00;;;;;;;6.57;2.05;;;;;;;;;;5014359;28;20235;-38
2021/05/26 10:00:26;;;;;;;2.85;2.00;;;;;;;;;;5012000;28;20516;-38
2021/05/26 10:02:52;;;;;;;5.47;2.45;;;;;;;;;;4997831;28;20045;-37
2021/05/26 10:05:18;;;;;;;1.05;0.73;;;;;;;;;;5015841;28;20469;-36
2021/05/26 10:07:51;;;;;;;2.28;1.42;;;;;;;;;;5011529;28;20029;-37
2021/05/26 10:10:17;;;;;;;3.33;1.50;;;;;;;;;;5016034;28;20061;-36
2021/05/26 10:12:43;;;;;;;4.43;1.48;;;;;;;;;;5013379;28;20037;-38
2021/05/26 10:15:09;;;;;;;5.50;1.40;;;;;;;;;;5014154;28;20493;-38
2021/05/26 10:17:37;;;;;;;6.55;1.40;;;;;;;;;;5019865;28;20041;-38
2021/05/26 10:20:05;;;;;;;6.72;2.20;;;;;;;;;;5022856;28;20569;-38
2021/05/26 10:22:30;;;;;;;16.70;3.05;;;;;;;;;;5018432;28;20123;-37
2021/05/26 10:24:56;;;;;;;6.07;1.20;;;;;;;;;;5021037;28;20502;-38
2021/05/26 10:27:32;;;;;;;6.55;1.25;;;;;;;;;;5017825;28;20490;-38
2021/05/26 10:29:58;;;;;;;2.72;1.35;;;;;;;;;;5019951;28;20091;-38
2021/05/26 10:32:25;;;;;;;6.32;0.93;;;;;;;;;;5019411;28;20041;-40
2021/05/26 10:34:51;;;;;;;5.65;1.85;;;;;;;;;;5021384;28;20026;-38
2021/05/26 10:37:27;;;;;;;5.82;1.23;;;;;;;;;;5020673;28;20076;-38
2021/05/26 10:39:53;;;;;;;1.65;0.75;;;;;;;;;;5017328;28;20084;-37
2021/05/26 10:42:24;;;;;;;4.97;3.10;;;;;;;;;;5018358;28;20033;-36
2021/05/26 10:45:04;;;;;;;6.60;3.85;;;;;;;;;;5018774;28;20042;-38
2021/05/26 10:47:36;;;;;;;12.43;1.58;;;;;;;;;;5019934;28;20271;-36
2021/05/26 10:50:02;;;;;;;3.63;1.40;;;;;;;;;;5021380;28;20502;-36
2021/05/26 10:52:27;;;;;;;8.50;1.80;;;;;;;;;;5016635;28;20483;-36
2021/05/26 10:54:53;;;;;;;2.50;0.90;;;;;;;;;;5020945;28;20048;-37
2021/05/26 10:57:18;;;;;;;5.32;1.77;;;;;;;;;;5019932;28;20519;-36
2021/05/26 11:00:04;;;;;;;6.03;2.63;;;;;;;;;;5020506;28;20046;-37
2021/05/26 11:02:29;;;;;;;10.98;4.00;;;;;;;;;;5020187;28;20133;-38
2021/05/26 11:05:14;;;;;;;5.93;1.75;;;;;;;;;;5019845;28;20119;-37
2021/05/26 11:07:39;;;;;;;3.13;1.90;;;;;;;;;;5021739;28;20091;-38
2021/05/26 11:10:06;;;;;;;4.28;1.15;;;;;;;;;;5019662;28;20026;-37
2021/05/26 11:12:50;;;;;;;9.00;2.40;;;;;;;;;;5017130;28;20048;-38
2021/05/26 11:15:34;;;;;;;2.40;0.95;;;;;;;;;;5023798;28;20104;-38
2021/05/26 11:20:44;;;;;;;4.00;1.40;;;;;;;;;;5022522;28;20092;-37
2021/05/26 11:23:13;;;;;;;1.90;0.95;;;;;;;;;;5021755;28;20431;-38
2021/05/26 11:25:38;;;;;;;15.32;2.60;;;;;;;;;;5021421;28;20033;-35
2021/05/26 11:28:04;;;;;;;3.50;1.38;;;;;;;;;;5018512;28;20075;-35
2021/05/26 11:30:29;;;;;;;2.70;1.35;;;;;;;;;;5015497;28;20061;-40
2021/05/26 11:32:56;;;;;;;4.43;0.77;;;;;;;;;;5014232;28;20037;-37
2021/05/26 11:35:21;;;;;;;10.75;2.08;;;;;;;;;;5016288;28;20041;-36
2021/05/26 11:37:46;;;;;;;4.50;1.38;;;;;;;;;;5017230;28;20030;-37
2021/05/26 11:40:15;;;;;;;14.10;2.30;;;;;;;;;;5016016;28;20133;-36
2021/05/26 11:42:40;;;;;;;1.63;1.25;;;;;;;;;;5015840;28;20026;-37
2021/05/26 11:45:07;;;;;;;8.35;1.83;;;;;;;;;;5020755;28;20096;-37
2021/05/26 11:47:32;;;;;;;10.95;1.95;;;;;;;;;;5018438;28;20033;-37
2021/05/26 11:49:58;;;;;;;2.20;1.17;;;;;;;;;;5018115;28;20040;-37
2021/05/26 11:52:24;;;;;;;2.95;1.02;;;;;;;;;;5015005;28;20475;-37
2021/05/26 11:54:56;;;;;;;1.27;1.17;;;;;;;;;;5014940;28;20072;-37
2021/05/26 11:57:31;;;;;;;1.83;0.90;;;;;;;;;;5015583;28;20091;-37
2021/05/26 11:59:56;;;;;;;6.53;1.70;;;;;;;;;;5013962;28;20050;-37
2021/05/26 12:02:21;;;;;;;3.88;1.48;;;;;;;;;;5018260;28;20116;-38
2021/05/26 12:04:47;;;;;;;8.35;3.47;;;;;;;;;;5018025;28;20061;-36
2021/05/26 12:07:12;;;;;;;3.45;2.40;;;;;;;;;;5013679;28;20037;-38
2021/05/26 12:09:37;;;;;;;3.88;2.05;;;;;;;;;;5014909;28;20422;-37
2021/05/26 12:12:16;;;;;;;3.85;1.33;;;;;;;;;;5014185;28;20064;-36
2021/05/26 12:14:42;;;;;;;3.53;2.17;;;;;;;;;;5017029;28;20513;-37
2021/05/26 12:17:09;;;;;;;3.92;2.03;;;;;;;;;;5010264;28;20037;-37
2021/05/26 12:19:35;;;;;;;3.17;1.63;;;;;;;;;;5017615;28;20033;-38
2021/05/26 12:22:07;;;;;;;3.65;1.90;;;;;;;;;;5018566;28;20036;-37
2021/05/26 12:24:51;;;;;;;5.55;2.53;;;;;;;;;;5018619;28;20148;-37
2021/05/26 12:27:46;;;;;;;7.80;2.63;;;;;;;;;;5014752;28;20038;-38
2021/05/26 12:30:11;;;;;;;3.10;1.40;;;;;;;;;;5016245;28;20149;-37
2021/05/26 12:32:37;;;;;;;9.13;1.83;;;;;;;;;;5014277;28;20492;-37
2021/05/26 12:35:02;;;;;;;5.13;2.35;;;;;;;;;;5018970;28;20785;-37
2021/05/26 12:37:40;;;;;;;5.57;1.60;;;;;;;;;;5017976;28;20033;-37
2021/05/26 12:40:07;;;;;;;2.53;1.55;;;;;;;;;;5021081;28;20108;-37
2021/05/26 12:42:40;;;;;;;4.85;2.05;;;;;;;;;;5020669;28;20045;-37
2021/05/26 12:45:22;;;;;;;4.60;1.60;;;;;;;;;;5017695;28;20037;-37
2021/05/26 12:47:48;;;;;;;6.00;2.00;;;;;;;;;;5015439;28;20099;-37
2021/05/26 12:50:15;;;;;;;4.75;1.40;;;;;;;;;;5020196;28;20033;-38
2021/05/26 12:52:41;;;;;;;3.72;1.50;;;;;;;;;;5018751;28;20124;-37
2021/05/26 12:55:07;;;;;;;13.65;2.35;;;;;;;;;;5020386;28;20136;-36
2021/05/26 12:57:33;;;;;;;3.50;1.60;;;;;;;;;;5013367;28;20053;-36
2021/05/26 12:59:59;;;;;;;5.40;1.48;;;;;;;;;;5016364;28;20532;-37
2021/05/26 13:02:29;;;;;;;2.08;1.88;;;;;;;;;;5011385;28;20049;-37
2021/05/26 13:04:55;;;;;;;4.97;1.38;;;;;;;;;;5012134;28;20041;-37
2021/05/26 13:07:43;;;;;;;5.55;2.15;;;;;;;;;;5019824;28;20040;-37
2021/05/26 13:10:16;;;;;;;1.55;0.90;;;;;;;;;;5014442;28;20569;-37
2021/05/26 13:12:42;;;;;;;5.03;2.03;;;;;;;;;;5014846;28;20034;-37
2021/05/26 13:15:20;;;;;;;5.13;2.20;;;;;;;;;;5016923;28;20036;-36
2021/05/26 13:17:45;;;;;;;4.60;1.88;;;;;;;;;;5017725;28;20688;-36
2021/05/26 13:20:21;;;;;;;4.53;1.90;;;;;;;;;;5014545;28;20109;-37
2021/05/26 13:22:47;;;;;;;14.77;1.73;;;;;;;;;;5016346;28;20290;-36
2021/05/26 13:25:12;;;;;;;4.22;1.65;;;;;;;;;;5018078;28;20497;-37
2021/05/26 13:27:41;;;;;;;6.75;2.67;;;;;;;;;;5014721;28;20041;-36
2021/05/26 13:30:07;;;;;;;0.95;0.52;;;;;;;;;;5014136;28;20744;-37
2021/05/26 13:32:32;;;;;;;5.22;1.80;;;;;;;;;;5012427;28;20037;-36
2021/05/26 13:34:57;;;;;;;3.45;1.45;;;;;;;;;;5012015;28;20156;-37
2021/05/26 13:37:23;;;;;;;7.07;1.85;;;;;;;;;;5018080;28;20029;-37
2021/05/26 13:39:48;;;;;;;6.32;1.92;;;;;;;;;;5016279;28;21054;-36
2021/05/26 13:42:13;;;;;;;2.38;1.08;;;;;;;;;;5015952;28;20061;-37
2021/05/26 13:44:38;;;;;;;4.50;1.52;;;;;;;;;;5015930;28;20037;-36
2021/05/26 13:47:04;;;;;;;5.45;1.27;;;;;;;;;;5015905;28;20590;-37
2021/05/26 13:49:29;;;;;;;3.83;1.58;;;;;;;;;;5013092;28;20048;-37
2021/05/26 13:51:54;;;;;;;5.18;2.38;;;;;;;;;;5014185;28;20033;-36
2021/05/26 13:54:20;;;;;;;7.68;1.85;;;;;;;;;;5015566;28;20573;-37
2021/05/26 13:56:45;;;;;;;2.88;0.80;;;;;;;;;;5013286;28;20033;-36
2021/05/26 13:59:10;;;;;;;2.88;0.98;;;;;;;;;;5013324;28;20030;-37
2021/05/26 14:01:36;;;;;;;3.05;1.15;;;;;;;;;;5012643;28;20221;-36
2021/05/26 14:04:01;;;;;;;2.70;1.48;;;;;;;;;;5016376;28;20150;-36
2021/05/26 14:06:26;;;;;;;4.45;1.27;;;;;;;;;;5014938;28;20087;-37
2021/05/26 14:08:52;;;;;;;2.20;1.20;;;;;;;;;;5018184;28;20077;-37
2021/05/26 14:11:19;;;;;;;3.40;1.23;;;;;;;;;;5016190;28;20051;-37
2021/05/26 14:13:44;;;;;;;3.40;1.83;;;;;;;;;;5015783;28;20061;-37
2021/05/26 14:16:10;;;;;;;1.83;0.85;;;;;;;;;;5020872;28;20106;-37
2021/05/26 14:18:35;;;;;;;8.40;1.77;;;;;;;;;;5016353;28;20750;-37
2021/05/26 14:21:01;;;;;;;3.25;1.88;;;;;;;;;;5012490;28;20029;-37
2021/05/26 14:23:26;;;;;;;0.93;0.50;;;;;;;;;;5013485;28;20101;-36
2021/05/26 14:25:51;;;;;;;5.25;1.08;;;;;;;;;;5015068;28;20033;-37
2021/05/26 14:28:16;;;;;;;2.22;0.80;;;;;;;;;;5012388;28;20053;-37
2021/05/26 14:30:42;;;;;;;5.65;1.75;;;;;;;;;;5013496;28;20487;-36
2021/05/26 14:33:07;;;;;;;3.03;1.10;;;;;;;;;;5012632;28;20034;-37
2021/05/26 14:35:33;;;;;;;16.55;2.03;;;;;;;;;;5012904;28;20042;-47
2021/05/26 14:38:04;;;;;;;7.32;1.85;;;;;;;;;;5014229;28;20072;-49
2021/05/26 14:40:30;;;;;;;2.92;1.27;;;;;;;;;;5011942;28;20044;-49
2021/05/26 14:42:58;;;;;;;2.90;0.90;;;;;;;;;;5012706;28;20041;-47
2021/05/26 14:45:23;;;;;;;2.22;0.73;;;;;;;;;;5015171;28;20041;-49
2021/05/26 14:47:48;;;;;;;10.82;2.03;;;;;;;;;;5030726;28;20036;-49
2021/05/26 14:50:14;;;;;;;3.20;1.20;;;;;;;;;;5012027;28;20107;-48
2021/05/26 14:52:40;;;;;;;2.92;1.38;;;;;;;;;;5011910;28;20040;-47
2021/05/26 14:55:06;;;;;;;4.18;1.80;;;;;;;;;;5016926;28;20033;-50
2021/05/26 14:57:31;;;;;;;6.68;1.63;;;;;;;;;;5014813;28;20176;-50
2021/05/26 14:59:56;;;;;;;4.13;1.58;;;;;;;;;;5010998;28;20045;-48
2021/05/26 15:02:23;;;;;;;4.30;2.38;;;;;;;;;;5014483;28;20038;-49
2021/05/26 15:04:48;;;;;;;0.88;0.70;;;;;;;;;;5018781;28;20042;-46
2021/05/26 15:07:13;;;;;;;3.38;0.85;;;;;;;;;;5020170;28;20053;-47
2021/05/26 15:09:38;;;;;;;1.92;1.35;;;;;;;;;;5017725;28;20112;-48
2021/05/26 15:12:04;;;;;;;5.03;1.95;;;;;;;;;;5019641;28;20132;-47
2021/05/26 15:14:29;;;;;;;3.67;2.00;;;;;;;;;;5022658;28;20048;-54
2021/05/26 15:16:55;;;;;;;3.92;1.50;;;;;;;;;;5021032;28;20025;-47
2021/05/26 15:19:20;;;;;;;11.55;1.73;;;;;;;;;;5018428;28;20552;-59
2021/05/26 15:21:47;;;;;;;7.07;1.52;;;;;;;;;;5016125;28;20247;-59
2021/05/26 15:24:13;;;;;;;2.08;1.30;;;;;;;;;;5016786;28;20112;-50
2021/05/26 15:26:38;;;;;;;6.90;1.83;;;;;;;;;;5015902;28;20451;-37
2021/05/26 15:29:03;;;;;;;1.48;0.47;;;;;;;;;;5014332;28;20096;-37
2021/05/26 15:31:30;;;;;;;3.30;1.85;;;;;;;;;;5017822;28;20040;-37
2021/05/26 15:33:55;;;;;;;2.90;1.50;;;;;;;;;;5002479;28;20042;-37
2021/05/26 15:36:20;;;;;;;4.32;1.42;;;;;;;;;;5013384;28;20040;-37
2021/05/26 15:38:46;;;;;;;2.53;1.33;;;;;;;;;;5017113;28;20045;-37
2021/05/26 15:41:11;;;;;;;7.65;2.50;;;;;;;;;;5013577;28;20533;-37
2021/05/26 15:43:36;;;;;;;3.85;1.70;;;;;;;;;;5014792;28;20564;-37